Capitol Logistics 939


EBLG
Liège Airport
Liege, BE
OLBA
Rafic Hariri International Airport
Beirut, LB

Activity Log

Date Flight Route Aircraft Duration
10/30/2019 CPX939 Not Available B738 3h 54m
10/02/2019 CPX939 Not Available B738 4h 20m

Route Details

Aircraft Information
Primary: Boeing 737-800BCF
Backup: Not Available
Route Data
Distance: 1658nm
Sched. Duration: 4h 04m
Avg. Duration: 3h 87m (-18m)
Times Flown: 2
Recm'd Route: Not Available
Planned Altitude: 37,000ft
Origin Wx: EBLG 061120Z 31010KT 270V350 9999 SCT040 15/08 Q1018 NOSIG
Dest. Wx: OLBA 061100Z 23012KT 8000 BKN026 29/23 Q1003 NOSIG
Notes:

Financial History
Total Freight: 82,896lbs
Average Load: 41,448lbs/flt
Fuel Used: 45,791lbs
Avg. Fuel Used: 22,896lbs/flt
Fuel Expense: $50,828
Avg. Fuel Expense: $25,414
Avg. Fuel Cost: $1.11/lbs
Total Gross Income: $858,803
Pilot Pay: $458
Total Expenses: $92,855
Total Revenue: $712,987
Average Revenue: $429,401.28